createdAt,value
2022-09-12T00:00:32.116Z,92
2022-09-12T00:01:32.150Z,92
2022-09-12T00:02:32.145Z,92
2022-09-12T00:03:32.092Z,92
2022-09-12T00:04:32.102Z,92
2022-09-12T00:05:32.102Z,92
2022-09-12T00:06:32.102Z,92
2022-09-12T00:07:32.093Z,92
2022-09-12T00:08:32.083Z,92
2022-09-12T00:09:32.078Z,92
2022-09-12T00:10:32.086Z,93
2022-09-12T00:11:32.101Z,93
2022-09-12T00:12:32.086Z,93
2022-09-12T00:13:32.196Z,93
2022-09-12T00:14:32.108Z,93
2022-09-12T00:15:32.179Z,93
2022-09-12T00:16:32.125Z,93
2022-09-12T00:17:32.138Z,93
2022-09-12T00:18:32.095Z,93
2022-09-12T00:19:32.113Z,93
2022-09-12T00:20:32.236Z,93
2022-09-12T00:21:32.090Z,93
2022-09-12T00:22:32.097Z,93
2022-09-12T00:23:32.079Z,93
2022-09-12T00:24:32.072Z,93
2022-09-12T00:25:32.091Z,93
2022-09-12T00:26:32.107Z,93
2022-09-12T00:27:32.085Z,93
2022-09-12T00:28:32.138Z,93
2022-09-12T00:29:32.071Z,93
2022-09-12T00:30:32.103Z,93
2022-09-12T00:31:32.161Z,93
2022-09-12T00:32:32.122Z,93
2022-09-12T00:33:32.095Z,93
2022-09-12T00:34:32.100Z,93
2022-09-12T00:35:32.089Z,93
2022-09-12T00:36:32.097Z,93
2022-09-12T00:37:32.241Z,93
2022-09-12T00:38:32.104Z,93
2022-09-12T00:39:32.087Z,93
2022-09-12T00:40:32.098Z,93
2022-09-12T00:41:32.087Z,93
2022-09-12T00:42:32.093Z,93
2022-09-12T00:43:32.057Z,93
2022-09-12T00:44:32.106Z,93
2022-09-12T00:45:32.133Z,93
2022-09-12T00:46:32.095Z,93
2022-09-12T00:47:32.070Z,93
2022-09-12T00:48:32.260Z,93
2022-09-12T00:49:32.094Z,93
2022-09-12T00:50:32.101Z,93
2022-09-12T00:51:32.097Z,93
2022-09-12T00:52:32.076Z,93
2022-09-12T00:53:32.137Z,93
2022-09-12T00:54:32.116Z,93
2022-09-12T00:55:32.093Z,93
2022-09-12T00:56:32.099Z,93
2022-09-12T00:57:32.220Z,93
2022-09-12T00:58:32.099Z,93
2022-09-12T00:59:32.081Z,93
2022-09-12T01:00:32.111Z,93
2022-09-12T01:01:32.726Z,93
2022-09-12T01:02:32.092Z,93
2022-09-12T01:03:32.077Z,93
2022-09-12T01:04:32.122Z,93
2022-09-12T01:05:32.075Z,93
2022-09-12T01:06:32.053Z,93
2022-09-12T01:07:32.089Z,93
2022-09-12T01:08:32.120Z,93
2022-09-12T01:09:32.055Z,93
2022-09-12T01:10:32.111Z,93
2022-09-12T01:11:32.075Z,93
2022-09-12T01:12:32.096Z,93
2022-09-12T01:13:32.086Z,93
2022-09-12T01:14:32.093Z,93
2022-09-12T01:15:32.085Z,93
2022-09-12T01:16:32.138Z,92
2022-09-12T01:17:32.135Z,92
2022-09-12T01:18:32.109Z,93
2022-09-12T01:19:32.085Z,93
2022-09-12T01:20:32.085Z,93
2022-09-12T01:21:32.119Z,93
2022-09-12T01:22:32.113Z,93
2022-09-12T01:23:32.087Z,93
2022-09-12T01:24:32.117Z,93
2022-09-12T01:25:32.061Z,93
2022-09-12T01:26:32.089Z,93
2022-09-12T01:27:32.095Z,93
2022-09-12T01:28:32.114Z,93
2022-09-12T01:29:32.061Z,93
2022-09-12T01:30:32.084Z,93
2022-09-12T01:31:33.100Z,93
2022-09-12T01:32:32.082Z,93
2022-09-12T01:33:32.070Z,93
2022-09-12T01:34:32.053Z,93
2022-09-12T01:35:32.085Z,93
2022-09-12T01:36:32.082Z,93
2022-09-12T01:37:32.055Z,93
2022-09-12T01:38:32.099Z,93
2022-09-12T01:39:32.104Z,93
2022-09-12T01:40:32.178Z,93
2022-09-12T01:41:32.199Z,93
2022-09-12T01:42:32.256Z,93
2022-09-12T01:43:32.364Z,93
2022-09-12T01:44:32.226Z,93
2022-09-12T01:45:32.301Z,93
2022-09-12T01:46:32.203Z,93
2022-09-12T01:47:32.175Z,93
2022-09-12T01:48:32.135Z,93
2022-09-12T01:49:32.079Z,93
2022-09-12T01:50:32.097Z,93
2022-09-12T01:51:32.105Z,93
2022-09-12T01:52:32.096Z,93
2022-09-12T01:53:32.082Z,93
2022-09-12T01:54:32.105Z,93
2022-09-12T01:55:32.088Z,93
2022-09-12T01:56:32.085Z,93
2022-09-12T01:57:32.048Z,93
2022-09-12T01:58:32.104Z,93
2022-09-12T01:59:32.085Z,93
2022-09-12T02:00:32.068Z,94
2022-09-12T02:01:32.127Z,93
2022-09-12T02:02:32.069Z,93
2022-09-12T02:03:32.135Z,93
2022-09-12T02:04:34.283Z,93
2022-09-12T02:05:32.061Z,93
2022-09-12T02:06:32.089Z,93
2022-09-12T02:07:32.073Z,93
2022-09-12T02:08:32.886Z,94
2022-09-12T02:09:32.086Z,93
2022-09-12T02:10:32.799Z,94
2022-09-12T02:11:32.062Z,94
2022-09-12T02:12:32.090Z,94
2022-09-12T02:13:32.117Z,94
2022-09-12T02:14:32.090Z,94
2022-09-12T02:15:32.064Z,94
2022-09-12T02:16:32.120Z,94
2022-09-12T02:17:32.136Z,94
2022-09-12T02:18:32.100Z,94
2022-09-12T02:19:32.094Z,94
2022-09-12T02:20:47.438Z,94
2022-09-12T02:21:32.109Z,94
2022-09-12T02:22:32.098Z,94
2022-09-12T02:23:32.071Z,94
2022-09-12T02:24:32.068Z,94
2022-09-12T02:25:32.078Z,94
2022-09-12T02:26:32.089Z,94
2022-09-12T02:27:32.072Z,94
2022-09-12T02:28:32.049Z,94
2022-09-12T02:29:32.067Z,94
2022-09-12T02:30:32.132Z,94
2022-09-12T02:31:32.085Z,94
2022-09-12T02:32:32.052Z,94
2022-09-12T02:33:32.081Z,94
2022-09-12T02:34:32.074Z,94
2022-09-12T02:35:32.080Z,94
2022-09-12T02:36:32.084Z,94
2022-09-12T02:37:32.152Z,94
2022-09-12T02:38:32.074Z,94
2022-09-12T02:39:32.072Z,94
2022-09-12T02:40:32.044Z,94
2022-09-12T02:41:32.233Z,94
2022-09-12T02:42:32.086Z,94
2022-09-12T02:43:32.088Z,94
2022-09-12T02:44:32.170Z,94
2022-09-12T02:45:32.138Z,94
2022-09-12T02:46:32.077Z,94
2022-09-12T02:47:32.078Z,94
2022-09-12T02:48:32.075Z,94
2022-09-12T02:49:32.071Z,94
2022-09-12T02:50:32.047Z,94
2022-09-12T02:51:32.073Z,94
2022-09-12T02:52:32.059Z,94
2022-09-12T02:53:32.093Z,94
2022-09-12T02:54:32.086Z,94
2022-09-12T02:55:32.082Z,94
2022-09-12T02:56:32.047Z,94
2022-09-12T02:57:32.067Z,94
2022-09-12T02:58:32.058Z,94
2022-09-12T02:59:32.051Z,94
2022-09-12T03:00:32.107Z,94
2022-09-12T03:01:32.219Z,94
2022-09-12T03:02:32.073Z,94
2022-09-12T03:03:32.084Z,94
2022-09-12T03:04:32.061Z,94
2022-09-12T03:05:32.070Z,94
2022-09-12T03:06:32.089Z,94
2022-09-12T03:07:32.059Z,94
2022-09-12T03:08:32.069Z,94
2022-09-12T03:09:32.084Z,94
2022-09-12T03:10:32.182Z,94
2022-09-12T03:11:32.104Z,94
2022-09-12T03:12:32.164Z,94
2022-09-12T03:13:32.188Z,94
2022-09-12T03:14:32.171Z,94
2022-09-12T03:15:32.187Z,94
2022-09-12T03:16:32.246Z,94
2022-09-12T03:17:32.126Z,94
2022-09-12T03:18:32.178Z,94
2022-09-12T03:19:32.115Z,94
2022-09-12T03:20:32.079Z,94
2022-09-12T03:21:32.216Z,94
2022-09-12T03:22:32.181Z,94
2022-09-12T03:23:32.060Z,94
2022-09-12T03:24:32.234Z,94
2022-09-12T03:25:32.300Z,94
2022-09-12T03:26:32.052Z,94
2022-09-12T03:27:32.130Z,94
2022-09-12T03:28:32.217Z,94
2022-09-12T03:29:32.201Z,94
2022-09-12T03:30:32.134Z,94
2022-09-12T03:31:32.043Z,94
2022-09-12T03:32:32.061Z,94
2022-09-12T03:33:32.078Z,94
2022-09-12T03:34:32.071Z,94
2022-09-12T03:35:32.050Z,94
2022-09-12T03:36:32.081Z,94
2022-09-12T03:37:32.171Z,94
2022-09-12T03:38:32.065Z,94
2022-09-12T03:39:32.071Z,94
2022-09-12T03:40:32.202Z,94
2022-09-12T03:41:32.081Z,94
2022-09-12T03:42:32.154Z,94
2022-09-12T03:43:32.063Z,94
2022-09-12T03:44:32.083Z,94
2022-09-12T03:45:32.156Z,94
2022-09-12T03:46:32.064Z,94
2022-09-12T03:47:32.061Z,94
2022-09-12T03:48:32.097Z,94
2022-09-12T03:49:32.090Z,94
2022-09-12T03:50:32.083Z,94
2022-09-12T03:51:32.045Z,94
2022-09-12T03:52:32.072Z,94
2022-09-12T03:53:32.101Z,94
2022-09-12T03:54:32.056Z,94
2022-09-12T03:55:32.064Z,94
2022-09-12T03:56:32.054Z,94
2022-09-12T03:57:32.086Z,94
2022-09-12T03:58:32.132Z,94
2022-09-12T03:59:32.054Z,94
2022-09-12T04:00:32.085Z,94
2022-09-12T04:01:32.136Z,94
2022-09-12T04:02:32.148Z,94
2022-09-12T04:03:32.053Z,94
2022-09-12T04:04:32.246Z,94
2022-09-12T04:05:32.108Z,94
2022-09-12T04:06:32.120Z,94
2022-09-12T04:07:32.062Z,94
2022-09-12T04:08:32.089Z,94
2022-09-12T04:09:32.040Z,94
2022-09-12T04:10:32.172Z,94
2022-09-12T04:11:32.079Z,94
2022-09-12T04:12:32.063Z,94
2022-09-12T04:13:32.048Z,94
2022-09-12T04:14:32.068Z,94
2022-09-12T04:15:32.089Z,94
2022-09-12T04:16:32.105Z,94
2022-09-12T04:17:32.036Z,94
2022-09-12T04:18:32.067Z,94
2022-09-12T04:19:32.112Z,94
2022-09-12T04:20:32.147Z,94
2022-09-12T04:21:32.045Z,94
2022-09-12T04:22:32.075Z,94
2022-09-12T04:23:32.066Z,94
2022-09-12T04:24:32.089Z,94
2022-09-12T04:25:32.153Z,94
2022-09-12T04:26:32.088Z,94
2022-09-12T04:27:32.065Z,94
2022-09-12T04:28:32.079Z,94
2022-09-12T04:29:32.033Z,94
2022-09-12T04:30:32.150Z,94
2022-09-12T04:31:32.068Z,94
2022-09-12T04:32:32.053Z,94
2022-09-12T04:33:32.037Z,94
2022-09-12T04:34:32.050Z,94
2022-09-12T04:35:32.084Z,94
2022-09-12T04:36:32.081Z,94
2022-09-12T04:37:32.068Z,94
2022-09-12T04:38:32.072Z,94
2022-09-12T04:39:32.131Z,94
2022-09-12T04:40:32.087Z,94
2022-09-12T04:41:32.064Z,94
2022-09-12T04:42:32.212Z,94
2022-09-12T04:43:32.048Z,94
2022-09-12T04:44:32.066Z,94
2022-09-12T04:45:32.122Z,94
2022-09-12T04:46:32.078Z,94
2022-09-12T04:47:32.068Z,94
2022-09-12T04:48:32.073Z,94
2022-09-12T04:49:32.089Z,94
2022-09-12T04:50:32.192Z,94
2022-09-12T04:51:32.063Z,94
2022-09-12T04:52:32.100Z,94
2022-09-12T04:53:32.052Z,94
2022-09-12T04:54:32.067Z,94
2022-09-12T04:55:32.075Z,94
2022-09-12T04:56:32.221Z,94
2022-09-12T04:57:32.067Z,94
2022-09-12T04:58:32.076Z,94
2022-09-12T04:59:32.060Z,94
2022-09-12T05:00:32.174Z,94
2022-09-12T05:01:32.103Z,94
2022-09-12T05:02:32.112Z,94
2022-09-12T05:03:32.132Z,94
2022-09-12T05:04:32.039Z,94
2022-09-12T05:05:32.035Z,94
2022-09-12T05:06:32.141Z,94
2022-09-12T05:07:32.168Z,94
2022-09-12T05:08:32.072Z,94
2022-09-12T05:09:32.060Z,94
2022-09-12T05:10:32.067Z,94
2022-09-12T05:11:53.067Z,94
2022-09-12T05:12:32.116Z,93
2022-09-12T05:13:32.057Z,93
2022-09-12T05:14:32.095Z,93
2022-09-12T05:15:32.068Z,93
2022-09-12T05:16:32.273Z,93
2022-09-12T05:17:32.083Z,93
2022-09-12T05:18:32.082Z,93
2022-09-12T05:19:32.076Z,93
2022-09-12T05:20:32.056Z,93
2022-09-12T05:21:32.159Z,92
2022-09-12T05:22:32.071Z,92
2022-09-12T05:23:32.098Z,92
2022-09-12T05:24:32.975Z,92
2022-09-12T05:25:41.331Z,92
2022-09-12T05:26:45.301Z,92
2022-09-12T05:27:50.611Z,92
2022-09-12T05:28:53.314Z,92
2022-09-12T05:29:57.324Z,92
2022-09-12T05:31:01.434Z,92
2022-09-12T05:32:05.309Z,92
2022-09-12T05:33:09.276Z,92
2022-09-12T05:34:13.325Z,92
2022-09-12T05:35:17.525Z,92
2022-09-12T05:36:21.286Z,92
2022-09-12T05:37:25.270Z,92
2022-09-12T05:38:29.532Z,92
2022-09-12T05:39:32.065Z,92
2022-09-12T05:40:32.188Z,92
2022-09-12T05:41:32.085Z,91
2022-09-12T05:42:32.056Z,91
2022-09-12T05:43:32.069Z,91
2022-09-12T05:44:32.061Z,91
2022-09-12T05:45:32.093Z,91
2022-09-12T05:46:32.298Z,91
2022-09-12T05:47:32.051Z,91
2022-09-12T05:48:32.091Z,90
2022-09-12T05:49:32.072Z,90
2022-09-12T05:50:32.066Z,90
2022-09-12T05:51:32.077Z,90
2022-09-12T05:52:32.078Z,90
2022-09-12T05:53:32.037Z,90
2022-09-12T05:54:32.181Z,90
2022-09-12T05:55:32.090Z,90
2022-09-12T05:56:32.063Z,90
2022-09-12T05:57:32.050Z,90
2022-09-12T05:58:32.146Z,90
2022-09-12T05:59:32.066Z,90
2022-09-12T06:00:33.602Z,90
2022-09-12T06:01:32.141Z,90
2022-09-12T06:02:32.159Z,90
2022-09-12T06:03:32.085Z,90
2022-09-12T06:04:32.059Z,90
2022-09-12T06:05:32.077Z,90
2022-09-12T06:06:32.104Z,90
2022-09-12T06:07:32.082Z,90
2022-09-12T06:08:32.075Z,90
2022-09-12T06:09:32.194Z,90
2022-09-12T06:10:32.148Z,90
2022-09-12T06:11:32.089Z,89
2022-09-12T06:12:32.061Z,89
2022-09-12T06:13:32.026Z,89
2022-09-12T06:14:32.058Z,89
2022-09-12T06:15:32.051Z,88
2022-09-12T06:16:32.137Z,88
2022-09-12T06:17:32.051Z,88
2022-09-12T06:18:32.052Z,88
2022-09-12T06:19:32.049Z,88
2022-09-12T06:20:32.062Z,88
2022-09-12T06:21:32.196Z,88
2022-09-12T06:22:32.080Z,88
2022-09-12T06:23:32.071Z,88
2022-09-12T06:24:32.161Z,88
2022-09-12T06:25:32.048Z,88
2022-09-12T06:26:32.137Z,88
2022-09-12T06:27:32.105Z,87
2022-09-12T06:28:32.063Z,87
2022-09-12T06:29:32.034Z,87
2022-09-12T06:30:32.261Z,87
2022-09-12T06:31:32.093Z,87
2022-09-12T06:32:32.144Z,86
2022-09-12T06:33:32.128Z,86
2022-09-12T06:34:32.058Z,86
2022-09-12T06:35:32.044Z,85
2022-09-12T06:36:32.063Z,86
2022-09-12T06:37:32.043Z,85
2022-09-12T06:38:32.046Z,85
2022-09-12T06:39:32.077Z,85
2022-09-12T06:40:32.070Z,85
2022-09-12T06:41:32.043Z,84
2022-09-12T06:42:32.054Z,84
2022-09-12T06:43:32.411Z,84
2022-09-12T06:44:32.105Z,83
2022-09-12T06:45:32.059Z,83
2022-09-12T06:46:32.163Z,83
2022-09-12T06:47:32.052Z,83
2022-09-12T06:48:32.073Z,83
2022-09-12T06:49:32.025Z,82
2022-09-12T06:50:32.047Z,82
2022-09-12T06:51:32.058Z,82
2022-09-12T06:52:32.076Z,82
2022-09-12T06:53:32.057Z,81
2022-09-12T06:54:32.043Z,80
2022-09-12T06:55:32.037Z,79
2022-09-12T06:56:32.039Z,79
2022-09-12T06:57:32.038Z,78
2022-09-12T06:58:32.191Z,77
2022-09-12T06:59:32.065Z,77
2022-09-12T07:00:32.038Z,77
2022-09-12T07:01:32.137Z,77
2022-09-12T07:02:32.095Z,76
2022-09-12T07:03:32.065Z,75
2022-09-12T07:04:32.017Z,75
2022-09-12T07:05:32.053Z,76
2022-09-12T07:06:32.276Z,76
2022-09-12T07:07:32.046Z,76
2022-09-12T07:08:32.068Z,76
2022-09-12T07:09:32.053Z,77
2022-09-12T07:10:32.075Z,77
2022-09-12T07:11:32.080Z,76
2022-09-12T07:12:32.049Z,76
2022-09-12T07:13:32.062Z,75
2022-09-12T07:14:32.053Z,75
2022-09-12T07:15:32.055Z,74
2022-09-12T07:16:32.215Z,73
2022-09-12T07:17:32.058Z,73
2022-09-12T07:18:32.092Z,74
2022-09-12T07:19:32.048Z,73
2022-09-12T07:20:32.017Z,73
2022-09-12T07:21:32.042Z,73
2022-09-12T07:22:32.104Z,73
2022-09-12T07:23:32.060Z,73
2022-09-12T07:24:32.060Z,73
2022-09-12T07:25:32.212Z,72
2022-09-12T07:26:32.070Z,72
2022-09-12T07:27:32.070Z,71
2022-09-12T07:28:32.065Z,70
2022-09-12T07:29:37.087Z,69
2022-09-12T07:30:32.167Z,68
2022-09-12T07:31:32.077Z,67
2022-09-12T07:32:32.038Z,66
2022-09-12T07:33:32.054Z,66
2022-09-12T07:34:32.034Z,63
2022-09-12T07:35:32.066Z,64
2022-09-12T07:36:32.051Z,63
2022-09-12T07:37:32.085Z,62
2022-09-12T07:38:32.068Z,60
2022-09-12T07:39:32.031Z,61
2022-09-12T07:40:32.059Z,60
2022-09-12T07:41:32.057Z,62
2022-09-12T07:42:32.050Z,62
2022-09-12T07:43:32.079Z,62
2022-09-12T07:44:32.043Z,62
2022-09-12T07:45:32.077Z,63
2022-09-12T07:46:33.103Z,63
2022-09-12T07:47:32.078Z,62
2022-09-12T07:48:32.118Z,63
2022-09-12T07:49:32.114Z,62
2022-09-12T07:50:32.145Z,61
2022-09-12T07:51:32.065Z,61
2022-09-12T07:52:32.063Z,61
2022-09-12T07:53:32.055Z,60
2022-09-12T07:54:32.047Z,61
2022-09-12T07:55:32.059Z,60
2022-09-12T07:56:35.682Z,60
2022-09-12T07:57:32.001Z,60
2022-09-12T07:58:32.136Z,60
2022-09-12T07:59:51.553Z,61
2022-09-12T08:00:32.097Z,61
2022-09-12T08:01:32.109Z,61
2022-09-12T08:02:32.075Z,61
2022-09-12T08:03:32.054Z,60
2022-09-12T08:04:32.062Z,60
2022-09-12T08:05:32.027Z,60
2022-09-12T08:06:32.047Z,60
2022-09-12T08:07:32.072Z,61
2022-09-12T08:08:32.065Z,60
2022-09-12T08:09:32.074Z,59
2022-09-12T08:10:32.125Z,58
2022-09-12T08:11:32.074Z,58
2022-09-12T08:12:32.085Z,58
2022-09-12T08:13:32.047Z,57
2022-09-12T08:14:32.051Z,57
2022-09-12T08:15:32.045Z,57
2022-09-12T08:16:32.106Z,56
2022-09-12T08:17:32.066Z,57
2022-09-12T08:18:32.069Z,58
2022-09-12T08:19:32.035Z,56
2022-09-12T08:20:32.049Z,56
2022-09-12T08:21:32.100Z,56
2022-09-12T08:22:32.048Z,56
2022-09-12T08:23:32.146Z,55
2022-09-12T08:24:32.184Z,55
2022-09-12T08:25:32.082Z,56
2022-09-12T08:26:32.067Z,55
2022-09-12T08:27:32.031Z,55
2022-09-12T08:28:32.048Z,56
2022-09-12T08:29:32.129Z,55
2022-09-12T08:30:32.128Z,55
2022-09-12T08:31:33.029Z,55
2022-09-12T08:32:32.060Z,57
2022-09-12T08:33:32.061Z,55
2022-09-12T08:34:32.040Z,55
2022-09-12T08:35:32.017Z,55
2022-09-12T08:36:32.111Z,54
2022-09-12T08:37:32.091Z,54
2022-09-12T08:38:33.135Z,54
2022-09-12T08:39:32.096Z,56
2022-09-12T08:40:32.029Z,57
2022-09-12T08:41:32.030Z,57
2022-09-12T08:42:32.047Z,55
2022-09-12T08:43:32.026Z,55
2022-09-12T08:44:32.130Z,54
2022-09-12T08:45:32.051Z,54
2022-09-12T08:46:32.044Z,53
2022-09-12T08:47:32.034Z,54
2022-09-12T08:48:32.036Z,53
2022-09-12T08:49:32.056Z,54
2022-09-12T08:50:32.040Z,54
2022-09-12T08:51:32.026Z,54
2022-09-12T08:52:32.043Z,55
2022-09-12T08:53:32.063Z,55
2022-09-12T08:54:32.038Z,56
2022-09-12T08:55:32.038Z,56
2022-09-12T08:56:32.050Z,54
2022-09-12T08:57:32.087Z,53
2022-09-12T08:58:32.032Z,53
2022-09-12T08:59:32.080Z,53
2022-09-12T09:00:32.058Z,54
2022-09-12T09:01:32.144Z,54
2022-09-12T09:02:32.126Z,54
2022-09-12T09:03:32.066Z,54
2022-09-12T09:04:32.160Z,55
2022-09-12T09:05:32.042Z,55
2022-09-12T09:06:32.041Z,54
2022-09-12T09:07:32.044Z,55
2022-09-12T09:08:32.075Z,55
2022-09-12T09:09:32.016Z,54
2022-09-12T09:10:32.213Z,55
2022-09-12T09:11:32.030Z,55
2022-09-12T09:12:32.089Z,54
2022-09-12T09:13:32.023Z,53
2022-09-12T09:14:32.039Z,53
2022-09-12T09:15:32.047Z,52
2022-09-12T09:16:32.145Z,52
2022-09-12T09:17:32.052Z,53
2022-09-12T09:18:32.028Z,52
2022-09-12T09:19:32.025Z,51
2022-09-12T09:20:32.057Z,53
2022-09-12T09:21:32.029Z,53
2022-09-12T09:22:32.319Z,53
2022-09-12T09:23:32.137Z,54
2022-09-12T09:24:33.868Z,54
2022-09-12T09:25:32.123Z,54
2022-09-12T09:26:32.061Z,54
2022-09-12T09:27:40.508Z,54
2022-09-12T09:28:32.043Z,54
2022-09-12T09:29:32.027Z,53
2022-09-12T09:30:32.038Z,52
2022-09-12T09:31:32.238Z,51
2022-09-12T09:32:32.053Z,49
2022-09-12T09:33:32.033Z,50
2022-09-12T09:34:32.092Z,50
2022-09-12T09:35:36.194Z,50
2022-09-12T09:36:32.074Z,51
2022-09-12T09:37:32.041Z,51
2022-09-12T09:38:32.034Z,51
2022-09-12T09:39:32.034Z,50
2022-09-12T09:40:32.046Z,51
2022-09-12T09:41:32.053Z,51
2022-09-12T09:42:32.032Z,51
2022-09-12T09:43:32.032Z,51
2022-09-12T09:44:32.050Z,51
2022-09-12T09:45:32.037Z,51
2022-09-12T09:46:32.106Z,51
2022-09-12T09:47:32.037Z,51
2022-09-12T09:48:32.018Z,51
2022-09-12T09:49:32.035Z,51
2022-09-12T09:50:32.016Z,52
2022-09-12T09:51:32.003Z,52
2022-09-12T09:52:32.029Z,53
2022-09-12T09:53:32.048Z,53
2022-09-12T09:54:32.069Z,52
2022-09-12T09:55:32.020Z,52
2022-09-12T09:56:31.963Z,53
2022-09-12T09:57:32.064Z,52
2022-09-12T09:58:32.024Z,52
2022-09-12T09:59:32.054Z,52
2022-09-12T10:00:32.045Z,53
2022-09-12T10:01:32.078Z,53
2022-09-12T10:02:32.006Z,53
2022-09-12T10:03:32.069Z,52
2022-09-12T10:04:32.031Z,52
2022-09-12T10:05:32.093Z,51
2022-09-12T10:06:32.011Z,51
2022-09-12T10:07:32.028Z,52
2022-09-12T10:08:32.040Z,51
2022-09-12T10:09:32.023Z,51
2022-09-12T10:10:32.037Z,51
2022-09-12T10:11:32.004Z,51
2022-09-12T10:12:32.166Z,51
2022-09-12T10:13:32.028Z,51
2022-09-12T10:14:32.066Z,51
2022-09-12T10:15:32.095Z,52
2022-09-12T10:16:32.018Z,52
2022-09-12T10:17:34.437Z,51
2022-09-12T10:18:32.030Z,51
2022-09-12T10:19:32.036Z,51
2022-09-12T10:20:32.015Z,51
2022-09-12T10:21:32.039Z,50
2022-09-12T10:22:32.092Z,50
2022-09-12T10:23:32.033Z,50
2022-09-12T10:24:32.041Z,50
2022-09-12T10:25:32.228Z,50
2022-09-12T10:26:32.033Z,50
2022-09-12T10:27:32.015Z,49
2022-09-12T10:28:32.069Z,49
2022-09-12T10:29:32.033Z,50
2022-09-12T10:30:32.109Z,50
2022-09-12T10:31:32.054Z,51
2022-09-12T10:32:32.018Z,51
2022-09-12T10:33:32.069Z,50
2022-09-12T10:34:32.027Z,51
2022-09-12T10:35:32.098Z,51
2022-09-12T10:36:32.030Z,51
2022-09-12T10:37:32.023Z,51
2022-09-12T10:38:32.028Z,51
2022-09-12T10:39:32.063Z,51
2022-09-12T10:40:32.125Z,51
2022-09-12T10:41:32.043Z,51
2022-09-12T10:42:32.022Z,51
2022-09-12T10:43:32.047Z,51
2022-09-12T10:44:32.049Z,51
2022-09-12T10:45:32.381Z,51
2022-09-12T10:46:32.031Z,51
2022-09-12T10:47:32.041Z,51
2022-09-12T10:48:32.036Z,49
2022-09-12T10:49:32.022Z,50
2022-09-12T10:50:32.020Z,50
2022-09-12T10:51:32.022Z,49
2022-09-12T10:52:32.036Z,49
2022-09-12T10:53:34.481Z,49
2022-09-12T10:54:32.092Z,49
2022-09-12T10:55:32.042Z,50
2022-09-12T10:56:32.058Z,50
2022-09-12T10:57:32.026Z,50
2022-09-12T10:58:32.026Z,50
2022-09-12T10:59:32.000Z,51
2022-09-12T11:00:32.050Z,51
2022-09-12T11:01:32.587Z,50
2022-09-12T11:02:32.254Z,50
2022-09-12T11:03:32.045Z,50
2022-09-12T11:04:32.017Z,50
2022-09-12T11:05:32.080Z,48
2022-09-12T11:06:32.035Z,49
2022-09-12T11:07:31.999Z,49
2022-09-12T11:08:32.025Z,49
2022-09-12T11:09:32.152Z,47
2022-09-12T11:10:36.149Z,48
2022-09-12T11:11:32.061Z,47
2022-09-12T11:12:32.003Z,48
2022-09-12T11:13:32.131Z,49
2022-09-12T11:14:32.054Z,49
2022-09-12T11:15:32.228Z,50
2022-09-12T11:16:31.993Z,50
2022-09-12T11:17:32.001Z,50
2022-09-12T11:18:32.033Z,50
2022-09-12T11:19:32.049Z,51
2022-09-12T11:20:32.007Z,52
2022-09-12T11:21:32.026Z,53
2022-09-12T11:22:32.244Z,53
2022-09-12T11:23:32.018Z,53
2022-09-12T11:24:32.008Z,54
2022-09-12T11:25:32.144Z,54
2022-09-12T11:26:32.032Z,54
2022-09-12T11:27:32.104Z,54
2022-09-12T11:28:32.001Z,54
2022-09-12T11:29:32.028Z,54
2022-09-12T11:30:32.123Z,54
2022-09-12T11:31:32.046Z,55
2022-09-12T11:32:31.987Z,54
2022-09-12T11:33:32.033Z,54
2022-09-12T11:34:32.073Z,54
2022-09-12T11:35:32.022Z,54
2022-09-12T11:36:31.998Z,54
2022-09-12T11:37:32.031Z,54
2022-09-12T11:38:32.010Z,54
2022-09-12T11:39:32.041Z,53
2022-09-12T11:40:32.071Z,53
2022-09-12T11:41:31.997Z,53
2022-09-12T11:42:32.028Z,53
2022-09-12T11:43:32.051Z,53
2022-09-12T11:44:32.022Z,53
2022-09-12T11:45:31.999Z,52
2022-09-12T11:46:31.998Z,52
2022-09-12T11:47:32.030Z,52
2022-09-12T11:48:32.019Z,52
2022-09-12T11:49:35.441Z,52
2022-09-12T11:50:32.018Z,53
2022-09-12T11:51:32.154Z,53
2022-09-12T11:52:32.008Z,53
2022-09-12T11:53:32.016Z,53
2022-09-12T11:54:32.209Z,53
2022-09-12T11:55:32.032Z,54
2022-09-12T11:56:32.010Z,53
2022-09-12T11:57:32.009Z,54
2022-09-12T11:58:32.013Z,54
2022-09-12T11:59:32.038Z,53
2022-09-12T12:00:31.992Z,53
2022-09-12T12:01:32.064Z,53
2022-09-12T12:02:32.076Z,54
2022-09-12T12:03:32.125Z,54
2022-09-12T12:04:32.141Z,54
2022-09-12T12:05:32.004Z,54
2022-09-12T12:06:32.037Z,54
2022-09-12T12:07:32.026Z,54
2022-09-12T12:08:32.022Z,54
2022-09-12T12:09:32.102Z,54
2022-09-12T12:10:31.999Z,54
2022-09-12T12:11:31.995Z,54
2022-09-12T12:12:32.021Z,54
2022-09-12T12:13:32.027Z,54
2022-09-12T12:14:32.024Z,53
2022-09-12T12:15:32.131Z,54
2022-09-12T12:16:32.006Z,54
2022-09-12T12:17:32.046Z,54
2022-09-12T12:18:32.062Z,53
2022-09-12T12:19:32.021Z,52
2022-09-12T12:20:32.020Z,52
2022-09-12T12:21:32.018Z,52
2022-09-12T12:22:32.031Z,52
2022-09-12T12:23:32.034Z,52
2022-09-12T12:24:32.138Z,53
2022-09-12T12:25:32.037Z,53
2022-09-12T12:26:32.047Z,53
2022-09-12T12:27:32.033Z,53
2022-09-12T12:28:34.906Z,53
2022-09-12T12:29:32.005Z,53
2022-09-12T12:30:32.012Z,51
2022-09-12T12:31:32.058Z,51
2022-09-12T12:32:32.021Z,52
2022-09-12T12:33:32.023Z,53
2022-09-12T12:34:32.045Z,53
2022-09-12T12:35:32.036Z,54
2022-09-12T12:36:32.166Z,54
2022-09-12T12:37:32.009Z,54
2022-09-12T12:38:31.981Z,54
2022-09-12T12:39:32.062Z,53
2022-09-12T12:40:32.018Z,53
2022-09-12T12:41:32.049Z,53
2022-09-12T12:42:31.978Z,53
2022-09-12T12:43:32.113Z,54
2022-09-12T12:44:32.010Z,54
2022-09-12T12:45:32.031Z,54
2022-09-12T12:46:32.083Z,54
2022-09-12T12:47:32.013Z,54
2022-09-12T12:48:32.035Z,54
2022-09-12T12:49:32.011Z,54
2022-09-12T12:50:32.017Z,54
2022-09-12T12:51:32.024Z,53
2022-09-12T12:52:32.027Z,53
2022-09-12T12:53:32.032Z,53
2022-09-12T12:54:31.986Z,53
2022-09-12T12:55:32.019Z,54
2022-09-12T12:56:31.998Z,54
2022-09-12T12:57:32.025Z,54
2022-09-12T12:58:32.004Z,54
2022-09-12T12:59:32.015Z,54
2022-09-12T13:00:33.104Z,54
2022-09-12T13:01:32.172Z,55
2022-09-12T13:02:32.070Z,55
2022-09-12T13:03:32.016Z,55
2022-09-12T13:04:32.044Z,55
2022-09-12T13:05:32.104Z,56
2022-09-12T13:06:32.019Z,58
2022-09-12T13:07:32.006Z,58
2022-09-12T13:08:32.035Z,56
2022-09-12T13:09:32.021Z,56
2022-09-12T13:10:32.000Z,56
2022-09-12T13:11:32.092Z,56
2022-09-12T13:12:32.000Z,55
2022-09-12T13:13:32.036Z,55
2022-09-12T13:14:31.990Z,56
2022-09-12T13:15:32.130Z,56
2022-09-12T13:16:32.073Z,56
2022-09-12T13:17:32.022Z,57
2022-09-12T13:18:32.079Z,58
2022-09-12T13:19:32.024Z,58
2022-09-12T13:20:32.034Z,58
2022-09-12T13:21:32.063Z,59
2022-09-12T13:22:32.047Z,59
2022-09-12T13:23:32.029Z,59
2022-09-12T13:24:32.032Z,59
2022-09-12T13:25:32.012Z,60
2022-09-12T13:26:32.015Z,60
2022-09-12T13:27:32.036Z,59
2022-09-12T13:28:32.019Z,59
2022-09-12T13:29:32.007Z,59
2022-09-12T13:30:31.980Z,59
2022-09-12T13:31:32.102Z,58
2022-09-12T13:32:32.049Z,58
2022-09-12T13:33:31.997Z,59
2022-09-12T13:34:31.983Z,59
2022-09-12T13:35:32.003Z,59
2022-09-12T13:36:32.026Z,59
2022-09-12T13:37:32.011Z,58
2022-09-12T13:38:32.039Z,58
2022-09-12T13:39:32.012Z,59
2022-09-12T13:40:32.006Z,59
2022-09-12T13:41:32.153Z,59
2022-09-12T13:42:32.011Z,59
2022-09-12T13:43:31.993Z,59
2022-09-12T13:44:31.988Z,59
2022-09-12T13:45:32.095Z,59
2022-09-12T13:46:32.032Z,59
2022-09-12T13:47:32.009Z,60
2022-09-12T13:48:32.080Z,60
2022-09-12T13:49:32.023Z,60
2022-09-12T13:50:31.983Z,60
2022-09-12T13:51:31.993Z,60
2022-09-12T13:52:31.973Z,60
2022-09-12T13:53:32.025Z,59
2022-09-12T13:54:31.984Z,59
2022-09-12T13:55:32.035Z,59
2022-09-12T13:56:31.994Z,59
2022-09-12T13:57:31.984Z,59
2022-09-12T13:58:31.980Z,59
2022-09-12T13:59:32.052Z,59
2022-09-12T14:00:32.006Z,59
2022-09-12T14:01:32.034Z,59
2022-09-12T14:02:31.994Z,60
2022-09-12T14:03:32.011Z,60
2022-09-12T14:04:31.999Z,59
2022-09-12T14:05:32.004Z,59
2022-09-12T14:06:31.993Z,59
2022-09-12T14:07:32.023Z,59
2022-09-12T14:08:32.007Z,58
2022-09-12T14:09:32.045Z,59
2022-09-12T14:10:32.019Z,59
2022-09-12T14:11:32.000Z,59
2022-09-12T14:12:31.966Z,60
2022-09-12T14:13:32.000Z,60
2022-09-12T14:14:32.013Z,60
2022-09-12T14:15:32.056Z,60
2022-09-12T14:16:31.996Z,59